Time;durP1;ratioP1;P1;durP2;ratioP2;P2;SDS_P1;SDS_P2;PMS_P1;PMS_P2;Temp;Humidity;BMP_temperature;BMP_pressure;BME280_temperature;BME280_humidity;BME280_pressure;Samples;Min_cycle;Max_cycle;Signal;HPM_P1;HPM_P2
2021/01/01 00:01:48;;;;;;;33.80;20.15;;;;;;;10.09;57.01;100158.78;1803252;78;21594;-78
2021/01/01 00:04:16;;;;;;;37.23;22.73;;;;;;;10.12;57.29;100158.43;1807095;79;21495;-78
2021/01/01 00:06:48;;;;;;;34.80;22.00;;;;;;;10.14;57.39;100155.11;1806033;79;21153;-79
2021/01/01 00:09:17;;;;;;;35.65;21.95;;;;;;;10.15;57.15;100152.77;1801080;79;21184;-78
2021/01/01 00:11:50;;;;;;;32.98;19.23;;;;;;;10.13;56.91;100157.45;1802572;79;21362;-78
2021/01/01 00:14:18;;;;;;;31.80;19.62;;;;;;;10.09;56.68;100145.91;1774235;79;21188;-78
2021/01/01 00:16:46;;;;;;;32.10;19.27;;;;;;;10.07;56.56;100143.88;1806843;77;21180;-80
2021/01/01 00:19:14;;;;;;;39.35;25.75;;;;;;;10.06;56.40;100148.39;1792693;78;21172;-78
2021/01/01 00:21:41;;;;;;;35.03;20.20;;;;;;;10.05;56.43;100148.06;1800170;79;21165;-78
2021/01/01 00:24:09;;;;;;;33.20;19.95;;;;;;;10.02;56.41;100144.86;1803144;78;21780;-78
2021/01/01 00:26:37;;;;;;;28.57;18.98;;;;;;;9.97;56.47;100152.03;1797096;78;21069;-78
2021/01/01 00:29:06;;;;;;;26.55;17.48;;;;;;;9.94;56.60;100158.20;1807013;79;21561;-78
2021/01/01 00:31:34;;;;;;;29.77;18.35;;;;;;;9.95;56.64;100155.86;1804743;79;22153;-77
2021/01/01 00:34:01;;;;;;;28.47;18.20;;;;;;;9.95;56.64;100146.03;1805177;79;21173;-78
2021/01/01 00:36:29;;;;;;;33.38;18.77;;;;;;;9.97;56.65;100151.20;1804249;79;21743;-79
2021/01/01 00:38:57;;;;;;;32.35;18.85;;;;;;;10.03;56.45;100138.00;1789850;79;21216;-79
2021/01/01 00:41:35;;;;;;;32.35;19.25;;;;;;;10.06;56.35;100135.01;1803675;79;22235;-79
2021/01/01 00:44:03;;;;;;;31.93;18.52;;;;;;;10.08;56.25;100138.38;1809852;79;21306;-79
2021/01/01 00:46:32;;;;;;;27.50;17.48;;;;;;;10.10;56.17;100136.87;1801077;78;21173;-79
2021/01/01 00:49:00;;;;;;;31.55;18.75;;;;;;;10.16;56.02;100130.85;1801591;77;22138;-79
2021/01/01 00:51:29;;;;;;;33.20;19.10;;;;;;;10.21;55.94;100127.69;1802641;79;21192;-79
2021/01/01 00:53:58;;;;;;;33.50;19.80;;;;;;;10.25;55.89;100125.05;1791121;80;21181;-78
2021/01/01 00:56:26;;;;;;;37.67;22.22;;;;;;;10.29;56.25;100127.73;1803179;79;21165;-76
2021/01/01 00:58:57;;;;;;;38.95;21.50;;;;;;;10.33;56.89;100120.55;1790355;80;21628;-77
2021/01/01 01:01:26;;;;;;;38.20;20.20;;;;;;;10.29;57.77;100114.36;1805146;79;21359;-77
2021/01/01 01:03:56;;;;;;;35.83;19.90;;;;;;;10.28;58.20;100105.48;1790216;80;21179;-77
2021/01/01 01:06:25;;;;;;;33.63;21.17;;;;;;;10.35;58.56;100111.01;1806096;79;21173;-78
2021/01/01 01:08:53;;;;;;;32.00;20.77;;;;;;;10.42;57.89;100101.33;1804586;79;21121;-78
2021/01/01 01:11:28;;;;;;;32.00;20.25;;;;;;;10.47;57.52;100103.50;1802839;79;21168;-78
2021/01/01 01:13:57;;;;;;;34.78;19.77;;;;;;;10.47;57.05;100106.19;1808724;78;21648;-78
2021/01/01 01:16:30;;;;;;;31.42;19.10;;;;;;;10.44;57.13;100106.50;1804767;79;21141;-78
2021/01/01 01:18:59;;;;;;;31.87;19.25;;;;;;;10.45;56.86;100106.86;1804823;79;21438;-79
2021/01/01 01:21:27;;;;;;;34.05;21.12;;;;;;;10.46;56.61;100102.67;1791778;79;21526;-78
2021/01/01 01:23:55;;;;;;;39.80;22.22;;;;;;;10.48;56.27;100096.63;1805339;79;21539;-78
2021/01/01 01:26:23;;;;;;;33.88;19.15;;;;;;;10.48;56.03;100092.62;1803009;79;21562;-78
2021/01/01 01:28:53;;;;;;;31.48;19.50;;;;;;;10.45;55.82;100089.46;1805842;79;21190;-78
2021/01/01 01:31:21;;;;;;;31.10;18.65;;;;;;;10.39;55.96;100086.92;1804065;78;21637;-80
2021/01/01 01:33:48;;;;;;;26.15;16.15;;;;;;;10.35;55.92;100085.58;1791519;80;21181;-80
2021/01/01 01:36:16;;;;;;;31.80;18.75;;;;;;;10.31;55.78;100081.55;1793960;79;21172;-80
2021/01/01 01:38:44;;;;;;;31.93;19.25;;;;;;;10.26;55.91;100079.88;1802215;79;21747;-79
2021/01/01 01:41:12;;;;;;;34.10;20.05;;;;;;;10.24;56.26;100089.89;1806200;79;21178;-80
2021/01/01 01:43:40;;;;;;;34.85;19.55;;;;;;;10.23;56.51;100090.39;1789785;80;21161;-78
2021/01/01 01:46:07;;;;;;;31.65;18.52;;;;;;;10.29;56.67;100078.22;1812677;79;21184;-78
2021/01/01 01:48:37;;;;;;;28.50;17.50;;;;;;;10.28;56.94;100078.72;1805336;78;21149;-81
2021/01/01 01:51:07;;;;;;;24.57;15.40;;;;;;;10.19;57.29;100082.86;1796497;79;21366;-81
2021/01/01 01:53:41;;;;;;;28.17;18.12;;;;;;;10.08;57.72;100086.20;1797475;79;21112;-78
2021/01/01 01:56:09;;;;;;;27.98;18.48;;;;;;;9.98;58.00;100072.09;1797683;79;21117;-78
2021/01/01 01:58:38;;;;;;;31.30;19.67;;;;;;;9.95;58.20;100077.80;1779757;79;21180;-78
2021/01/01 02:01:05;;;;;;;25.60;15.72;;;;;;;9.95;58.32;100073.79;1797591;79;21168;-78
2021/01/01 02:03:34;;;;;;;28.70;17.62;;;;;;;9.93;58.48;100078.45;1798213;79;22483;-77
2021/01/01 02:06:02;;;;;;;28.60;18.35;;;;;;;9.91;58.66;100069.77;1797708;79;21026;-78
2021/01/01 02:08:29;;;;;;;28.02;17.65;;;;;;;9.91;58.71;100067.09;1797215;79;21197;-78
2021/01/01 02:10:59;;;;;;;29.10;18.82;;;;;;;9.89;58.81;100065.05;1797894;79;21415;-78
2021/01/01 02:13:27;;;;;;;30.45;17.20;;;;;;;9.88;58.84;100059.38;1797554;78;21184;-78
2021/01/01 02:15:55;;;;;;;28.98;17.98;;;;;;;9.94;58.78;100061.39;1797091;79;21357;-78
2021/01/01 02:18:37;;;;;;;29.52;18.05;;;;;;;9.97;58.71;100060.23;1793922;79;21200;-78
2021/01/01 02:21:15;;;;;;;29.92;19.65;;;;;;;10.00;58.65;100054.06;1797777;79;21105;-78
2021/01/01 02:23:45;;;;;;;31.27;19.60;;;;;;;10.03;58.54;100050.20;1797761;78;21654;-78
2021/01/01 02:26:13;;;;;;;32.58;19.00;;;;;;;10.10;58.29;100051.23;1797057;78;21097;-78
2021/01/01 02:28:40;;;;;;;29.32;19.23;;;;;;;10.18;57.98;100045.89;1797166;79;21350;-78
2021/01/01 02:31:08;;;;;;;30.50;18.80;;;;;;;10.25;57.73;100043.41;1797658;78;21608;-78
2021/01/01 02:33:36;;;;;;;29.92;18.95;;;;;;;10.29;57.42;100044.25;1797628;79;21562;-78
2021/01/01 02:36:06;;;;;;;27.95;18.30;;;;;;;10.33;56.92;100043.42;1796988;78;21184;-77
2021/01/01 02:38:34;;;;;;;30.45;19.10;;;;;;;10.35;56.44;100045.41;1797079;79;21133;-77
2021/01/01 02:41:02;;;;;;;31.10;18.25;;;;;;;10.34;56.33;100047.27;1792671;79;21187;-79
2021/01/01 02:43:29;;;;;;;29.12;18.20;;;;;;;10.36;56.39;100048.45;1783595;80;21207;-76
2021/01/01 02:45:58;;;;;;;30.10;17.75;;;;;;;10.38;56.42;100048.60;1786553;79;21539;-79
2021/01/01 02:48:27;;;;;;;28.57;18.42;;;;;;;10.38;56.46;100040.58;1791410;80;21193;-79
2021/01/01 02:50:54;;;;;;;29.42;18.65;;;;;;;10.39;56.32;100042.74;1806817;79;21154;-79
2021/01/01 02:53:22;;;;;;;37.80;22.82;;;;;;;10.42;56.18;100034.39;1807588;78;21373;-80
2021/01/01 02:55:50;;;;;;;35.85;23.73;;;;;;;10.43;56.22;100028.02;1807470;79;21613;-80
2021/01/01 02:58:17;;;;;;;31.07;20.35;;;;;;;10.38;56.28;100032.54;1806198;79;21182;-78
2021/01/01 03:00:49;;;;;;;30.25;19.73;;;;;;;10.37;56.34;100031.38;1803199;79;21404;-78
2021/01/01 03:03:17;;;;;;;27.98;17.95;;;;;;;10.30;56.50;100022.33;1806767;79;21189;-79
2021/01/01 03:05:45;;;;;;;30.75;18.60;;;;;;;10.19;56.71;100022.64;1801544;78;21704;-78
2021/01/01 03:08:14;;;;;;;28.12;18.07;;;;;;;10.08;56.99;100030.00;1790954;80;21188;-78
2021/01/01 03:10:42;;;;;;;24.67;16.27;;;;;;;10.05;57.19;100028.15;1801129;79;21531;-77
2021/01/01 03:13:10;;;;;;;26.35;17.50;;;;;;;10.04;57.30;100035.34;1808661;79;21181;-78
2021/01/01 03:15:38;;;;;;;27.70;17.45;;;;;;;10.01;57.40;100027.64;1807000;78;21177;-79
2021/01/01 03:18:06;;;;;;;36.23;21.45;;;;;;;9.98;57.44;100027.13;1801752;79;22021;-78
2021/01/01 03:20:36;;;;;;;30.88;19.40;;;;;;;9.90;57.49;100029.27;1805414;79;21176;-78
2021/01/01 03:23:06;;;;;;;33.50;20.37;;;;;;;9.93;57.41;100021.43;1805426;78;21612;-79
2021/01/01 03:25:34;;;;;;;30.17;20.65;;;;;;;9.87;57.47;100013.57;1804697;78;21185;-79
2021/01/01 03:28:02;;;;;;;33.02;19.25;;;;;;;9.74;57.64;100019.39;1809616;79;21568;-78
2021/01/01 03:30:30;;;;;;;30.77;18.17;;;;;;;9.65;57.92;100023.04;1807121;78;21176;-78
2021/01/01 03:32:58;;;;;;;31.37;19.70;;;;;;;9.58;58.13;100020.20;1803260;79;21141;-78
2021/01/01 03:35:26;;;;;;;25.43;16.07;;;;;;;9.56;58.33;100010.65;1792063;80;21576;-80
2021/01/01 03:37:54;;;;;;;33.67;21.10;;;;;;;9.59;58.38;100017.85;1802249;79;21504;-77
2021/01/01 03:40:22;;;;;;;38.55;21.73;;;;;;;9.63;58.34;100012.52;1805040;79;21160;-77
2021/01/01 03:42:50;;;;;;;25.77;15.08;;;;;;;9.70;58.27;100009.18;1784148;80;21348;-80
2021/01/01 03:45:18;;;;;;;46.60;25.55;;;;;;;9.70;58.23;100009.18;1784108;80;21179;-79
2021/01/01 03:47:46;;;;;;;52.43;29.37;;;;;;;9.65;58.25;100002.48;1784358;80;21056;-76
2021/01/01 03:50:14;;;;;;;52.53;28.90;;;;;;;9.63;58.31;100003.66;1784263;80;21171;-81
2021/01/01 03:52:42;;;;;;;50.83;27.70;;;;;;;9.62;58.31;99994.77;1784118;80;21129;-81
2021/01/01 03:55:10;;;;;;;33.60;21.33;;;;;;;9.65;58.31;99990.45;1801683;79;21353;-80
2021/01/01 03:57:38;;;;;;;32.95;18.92;;;;;;;9.72;57.90;99989.31;1804804;79;21212;-79
2021/01/01 04:00:09;;;;;;;38.70;21.95;;;;;;;9.77;57.28;99999.02;1805859;79;21141;-80
2021/01/01 04:02:40;;;;;;;33.48;21.93;;;;;;;9.76;56.95;99992.47;1786360;79;21160;-80
2021/01/01 04:05:08;;;;;;;32.83;20.60;;;;;;;9.74;56.68;100003.34;1805192;79;21152;-79
2021/01/01 04:07:37;;;;;;;37.73;22.50;;;;;;;9.70;56.47;100003.83;1805365;77;21789;-79
2021/01/01 04:10:06;;;;;;;34.38;20.65;;;;;;;9.68;56.20;99992.48;1791912;77;21523;-78
2021/01/01 04:12:34;;;;;;;41.42;23.83;;;;;;;9.64;55.96;99989.28;1802059;77;21148;-78
2021/01/01 04:15:04;;;;;;;32.28;19.82;;;;;;;9.59;55.81;99995.13;1812650;79;21173;-80
2021/01/01 04:17:31;;;;;;;33.25;19.85;;;;;;;9.56;55.55;99987.92;1791712;79;21160;-78
2021/01/01 04:19:59;;;;;;;30.32;19.70;;;;;;;9.50;55.69;99978.72;1802855;79;21900;-77
2021/01/01 04:22:28;;;;;;;33.38;21.02;;;;;;;9.50;55.60;99975.22;1805438;79;21050;-78
2021/01/01 04:24:56;;;;;;;31.27;20.00;;;;;;;9.51;55.49;99974.21;1804140;78;21607;-79
2021/01/01 04:27:24;;;;;;;31.40;20.27;;;;;;;9.51;55.22;99976.38;1805523;79;21169;-78
2021/01/01 04:29:52;;;;;;;32.60;20.00;;;;;;;9.45;55.17;99971.70;1805294;79;21708;-79
2021/01/01 04:32:19;;;;;;;33.67;20.60;;;;;;;9.41;55.07;99981.03;1806046;78;21787;-78
2021/01/01 04:34:47;;;;;;;32.58;21.65;;;;;;;9.32;54.95;99975.33;1801265;79;21228;-80
2021/01/01 04:37:15;;;;;;;30.55;19.52;;;;;;;9.18;55.13;99967.43;1805531;79;21141;-78
2021/01/01 04:39:43;;;;;;;30.27;20.82;;;;;;;9.08;55.35;99968.89;1804225;78;21165;-79
2021/01/01 04:42:11;;;;;;;31.42;19.73;;;;;;;9.06;55.34;99986.91;1791083;80;21168;-79
2021/01/01 04:44:38;;;;;;;31.17;20.45;;;;;;;9.00;55.42;99982.20;1804869;79;21369;-79
2021/01/01 04:47:07;;;;;;;28.92;17.57;;;;;;;8.95;55.47;99986.33;1778981;79;21205;-83
2021/01/01 04:49:35;;;;;;;28.57;17.12;;;;;;;8.91;55.58;99997.86;1796690;79;21158;-80
2021/01/01 04:52:03;;;;;;;32.00;20.23;;;;;;;8.87;55.76;100011.19;1797260;79;21196;-81
2021/01/01 04:54:33;;;;;;;28.50;17.95;;;;;;;8.86;55.91;100001.00;1797508;79;21173;-78
2021/01/01 04:57:01;;;;;;;35.13;19.60;;;;;;;8.94;55.94;99999.36;1797937;79;22396;-79
2021/01/01 04:59:29;;;;;;;28.80;18.90;;;;;;;8.97;55.96;99985.19;1797825;79;21231;-79
2021/01/01 05:01:57;;;;;;;30.45;19.50;;;;;;;9.03;55.98;99991.22;1800205;77;21199;-79
2021/01/01 05:04:25;;;;;;;37.05;20.90;;;;;;;9.08;56.02;99983.59;1796827;77;21187;-78
2021/01/01 05:06:53;;;;;;;28.40;17.67;;;;;;;9.13;56.04;99975.92;1782610;80;21187;-78
2021/01/01 05:09:21;;;;;;;27.75;17.23;;;;;;;9.17;56.19;99978.25;1746304;79;21810;-79
2021/01/01 05:11:49;;;;;;;27.37;16.85;;;;;;;9.21;56.20;99968.92;1801872;77;22055;-80
2021/01/01 05:14:17;;;;;;;29.18;18.37;;;;;;;9.29;56.23;99982.32;1804575;79;21584;-80
2021/01/01 05:16:51;;;;;;;29.10;17.95;;;;;;;9.34;56.15;99980.00;1804517;79;21592;-79
2021/01/01 05:19:19;;;;;;;27.82;17.15;;;;;;;9.39;56.05;99980.34;1806398;79;21616;-79
2021/01/01 05:22:04;;;;;;;27.15;16.93;;;;;;;9.46;55.98;99975.20;1787534;80;21625;-78
2021/01/01 05:24:45;;;;;;;32.10;17.20;;;;;;;9.49;55.93;99976.19;1793902;79;21181;-79
2021/01/01 05:27:18;;;;;;;28.80;17.60;;;;;;;9.58;55.78;99972.54;1795681;79;21170;-79
2021/01/01 05:29:54;;;;;;;29.23;17.35;;;;;;;9.62;55.74;99976.05;1801039;79;21129;-80
2021/01/01 05:32:28;;;;;;;28.80;19.07;;;;;;;9.68;55.65;99981.78;1797077;78;21203;-80
2021/01/01 05:34:57;;;;;;;25.55;17.73;;;;;;;9.73;55.51;99974.09;1798942;79;21340;-79
2021/01/01 05:37:30;;;;;;;29.63;17.42;;;;;;;9.70;55.61;99969.90;1803839;78;21258;-79
2021/01/01 05:40:09;;;;;;;31.65;18.00;;;;;;;9.75;55.70;99977.43;1808893;79;21181;-79
2021/01/01 05:42:41;;;;;;;23.62;15.98;;;;;;;9.82;55.81;99983.80;1799548;79;21105;-79
2021/01/01 05:45:17;;;;;;;26.70;16.10;;;;;;;9.86;55.88;99974.45;1805718;79;21203;-79
2021/01/01 05:48:05;;;;;;;26.95;15.50;;;;;;;9.91;55.93;99988.17;1806707;79;22275;-79
2021/01/01 05:50:39;;;;;;;30.30;16.90;;;;;;;9.90;56.01;99990.48;1803230;79;21120;-78
2021/01/01 05:53:19;;;;;;;28.90;17.95;;;;;;;9.88;56.10;99999.19;1805009;78;21157;-80
2021/01/01 05:55:47;;;;;;;29.12;16.93;;;;;;;9.85;56.14;99998.17;1760485;80;21235;-79
2021/01/01 05:58:24;;;;;;;29.98;17.25;;;;;;;9.85;56.21;99995.49;1804403;79;21639;-78
2021/01/01 06:00:55;;;;;;;28.02;17.27;;;;;;;9.81;56.30;99996.34;1805325;79;21354;-77
2021/01/01 06:03:25;;;;;;;31.80;19.30;;;;;;;9.85;56.23;100000.84;1823154;78;21545;-78
2021/01/01 06:05:55;;;;;;;28.45;17.40;;;;;;;9.83;56.27;99998.34;1806473;79;21577;-79
2021/01/01 06:08:26;;;;;;;32.33;16.15;;;;;;;9.87;56.21;99985.48;1806560;79;21177;-77
2021/01/01 06:11:00;;;;;;;25.90;14.80;;;;;;;9.94;56.06;99981.62;1804349;79;21251;-78
2021/01/01 06:13:34;;;;;;;19.32;12.70;;;;;;;9.97;55.96;99981.31;1805007;79;21377;-77
2021/01/01 06:16:04;;;;;;;24.12;14.93;;;;;;;10.01;55.92;99984.83;1792629;78;21124;-78
2021/01/01 06:18:33;;;;;;;19.67;13.62;;;;;;;10.05;55.83;99984.83;1805532;79;21165;-80
2021/01/01 06:21:08;;;;;;;25.25;15.18;;;;;;;10.13;55.77;99980.83;1804338;79;21176;-79
2021/01/01 06:23:40;;;;;;;23.85;14.28;;;;;;;10.15;55.64;99982.82;1806338;79;21146;-78
2021/01/01 06:26:13;;;;;;;19.57;13.05;;;;;;;10.18;55.55;99980.83;1805817;79;21440;-78
2021/01/01 06:28:45;;;;;;;20.40;13.72;;;;;;;10.16;55.56;99968.43;1807793;79;21161;-79
2021/01/01 06:31:13;;;;;;;23.67;14.65;;;;;;;10.18;55.62;99979.49;1790356;80;21253;-80
2021/01/01 06:33:43;;;;;;;22.90;14.58;;;;;;;10.25;55.54;99977.83;1802573;79;21197;-80
2021/01/01 06:36:35;;;;;;;23.40;14.38;;;;;;;10.29;55.41;99968.47;1803965;79;21608;-79
2021/01/01 06:39:04;;;;;;;24.20;14.78;;;;;;;10.38;55.30;99966.11;1799159;79;22641;-79
2021/01/01 06:41:45;;;;;;;23.32;13.72;;;;;;;10.44;55.18;99965.43;1806108;79;21658;-77
2021/01/01 06:44:38;;;;;;;17.00;11.75;;;;;;;10.53;55.07;99976.45;1803330;79;21129;-79
2021/01/01 06:47:13;;;;;;;24.90;13.22;;;;;;;10.59;54.95;99974.47;1801905;79;21173;-80
2021/01/01 06:49:41;;;;;;;20.80;13.22;;;;;;;10.63;54.96;99973.13;1792396;77;21140;-79
2021/01/01 06:52:15;;;;;;;21.27;13.40;;;;;;;10.66;55.02;99982.13;1807312;79;21779;-79
2021/01/01 06:54:56;;;;;;;16.23;10.88;;;;;;;10.69;55.16;99976.95;1809834;77;21152;-78
2021/01/01 06:57:29;;;;;;;16.20;8.93;;;;;;;10.73;55.49;99978.79;1807897;77;21153;-77
2021/01/01 06:59:58;;;;;;;17.87;10.68;;;;;;;10.69;56.16;99964.89;1811096;77;21420;-76
2021/01/01 07:02:30;;;;;;;20.05;10.60;;;;;;;10.67;56.52;99958.86;1806471;77;21097;-78
2021/01/01 07:04:59;;;;;;;19.85;11.55;;;;;;;10.69;56.92;99962.73;1814050;77;22096;-78
2021/01/01 07:07:42;;;;;;;19.48;11.10;;;;;;;10.77;57.15;99972.92;1807340;79;21416;-80
2021/01/01 07:10:14;;;;;;;19.37;11.30;;;;;;;10.81;57.19;99978.27;1806158;77;21585;-77
2021/01/01 07:12:42;;;;;;;17.17;11.40;;;;;;;10.82;57.42;99995.17;1805952;79;21471;-78
2021/01/01 07:15:33;;;;;;;19.35;11.60;;;;;;;10.81;57.57;99987.64;1800446;79;21105;-78
2021/01/01 07:18:01;;;;;;;17.75;11.25;;;;;;;10.80;57.84;99991.81;1794819;79;21928;-77
2021/01/01 07:20:29;;;;;;;15.98;10.38;;;;;;;10.72;58.22;99991.83;1806527;79;21180;-77
2021/01/01 07:22:58;;;;;;;14.43;9.53;;;;;;;10.65;58.51;99992.52;1746358;79;21164;-79
2021/01/01 07:25:38;;;;;;;21.68;11.18;;;;;;;10.65;58.77;99997.05;1794285;78;21208;-79
2021/01/01 07:28:07;;;;;;;19.32;10.95;;;;;;;10.64;58.97;99994.04;1794242;79;21238;-78
2021/01/01 07:30:35;;;;;;;18.20;11.68;;;;;;;10.65;59.12;99993.86;1801024;77;21423;-78
2021/01/01 07:33:03;;;;;;;16.12;9.73;;;;;;;10.69;59.21;99993.53;1805708;79;21169;-79
2021/01/01 07:35:31;;;;;;;18.05;10.72;;;;;;;10.70;59.33;99991.17;1800925;79;21184;-79
2021/01/01 07:37:59;;;;;;;19.50;11.70;;;;;;;10.70;59.40;100004.56;1809070;79;21072;-79
2021/01/01 07:40:27;;;;;;;19.32;11.30;;;;;;;10.65;59.54;99993.86;1804831;79;21603;-79
2021/01/01 07:42:55;;;;;;;15.80;8.88;;;;;;;10.66;59.62;99992.84;1791765;79;21616;-77
2021/01/01 07:45:24;;;;;;;22.62;12.10;;;;;;;10.69;59.83;100009.09;1800853;79;21517;-79
2021/01/01 07:47:51;;;;;;;21.48;12.50;;;;;;;10.68;59.87;99998.56;1804009;79;21161;-78
2021/01/01 07:50:19;;;;;;;14.60;9.30;;;;;;;10.66;60.03;99991.50;1775752;79;21174;-79
2021/01/01 07:52:47;;;;;;;20.97;12.73;;;;;;;10.70;60.20;99993.34;1806904;79;21488;-79
2021/01/01 07:55:21;;;;;;;26.35;13.22;;;;;;;10.72;60.20;100007.42;1791678;80;21789;-79
2021/01/01 07:57:49;;;;;;;24.60;12.85;;;;;;;10.72;60.28;99995.84;1805770;79;21185;-77
2021/01/01 08:00:19;;;;;;;22.60;12.05;;;;;;;10.72;60.35;99995.84;1806390;77;21157;-78
2021/01/01 08:02:47;;;;;;;24.85;12.88;;;;;;;10.72;60.56;100008.77;1806600;79;21156;-80
2021/01/01 08:05:15;;;;;;;20.88;11.75;;;;;;;10.67;60.71;100007.07;1782369;79;21324;-78
2021/01/01 08:07:43;;;;;;;19.30;10.60;;;;;;;10.66;60.97;99998.20;1802719;79;21173;-77
2021/01/01 08:10:10;;;;;;;18.17;11.40;;;;;;;10.63;61.15;100004.42;1805267;79;21219;-78
2021/01/01 08:12:38;;;;;;;22.48;13.00;;;;;;;10.64;61.30;99995.38;1790904;80;21149;-76
2021/01/01 08:15:06;;;;;;;23.12;12.75;;;;;;;10.68;61.39;99990.52;1807431;79;21571;-78
2021/01/01 08:17:34;;;;;;;17.90;10.78;;;;;;;10.69;61.45;100009.59;1791140;80;21180;-79
2021/01/01 08:20:03;;;;;;;17.90;10.08;;;;;;;10.68;61.54;99990.52;1815642;79;22681;-79
2021/01/01 08:22:35;;;;;;;19.23;11.05;;;;;;;10.72;61.58;99998.05;1812212;79;21674;-78
2021/01/01 08:25:06;;;;;;;20.43;10.80;;;;;;;10.76;61.59;100001.20;1813634;77;21508;-79
2021/01/01 08:27:34;;;;;;;19.05;11.12;;;;;;;10.80;61.55;100002.03;1815414;79;21156;-78
2021/01/01 08:30:06;;;;;;;20.90;11.68;;;;;;;10.80;61.65;100003.88;1814550;79;21175;-77
2021/01/01 08:32:34;;;;;;;19.95;12.25;;;;;;;10.86;61.65;100007.23;1804065;77;21348;-80
2021/01/01 08:35:03;;;;;;;19.77;11.78;;;;;;;10.93;61.54;100008.20;1806664;77;21200;-77
2021/01/01 08:37:32;;;;;;;22.48;11.12;;;;;;;10.93;61.60;100005.52;1799946;79;21204;-80
2021/01/01 08:40:09;;;;;;;21.25;12.07;;;;;;;10.96;61.63;100014.56;1754519;80;21168;-78
2021/01/01 08:42:38;;;;;;;29.20;13.87;;;;;;;10.99;61.64;100002.65;1783972;80;21159;-79
2021/01/01 08:45:09;;;;;;;22.85;12.40;;;;;;;11.00;61.69;100019.09;1784103;80;22668;-79
2021/01/01 08:47:45;;;;;;;16.20;10.30;;;;;;;11.00;61.78;100007.86;1783779;79;21192;-80
2021/01/01 08:50:20;;;;;;;19.30;10.72;;;;;;;11.06;61.74;100022.41;1792630;79;21164;-80
2021/01/01 08:52:51;;;;;;;20.82;12.15;;;;;;;11.10;61.76;100009.00;1755383;80;21207;-76
2021/01/01 08:55:19;;;;;;;19.95;11.63;;;;;;;11.12;61.70;100015.84;1780505;80;21140;-77
2021/01/01 08:57:47;;;;;;;16.15;9.88;;;;;;;11.18;61.69;100009.81;1799894;79;22619;-80
2021/01/01 09:00:16;;;;;;;18.23;11.60;;;;;;;11.19;61.69;100010.64;1806794;79;21162;-78
2021/01/01 09:02:44;;;;;;;19.98;12.47;;;;;;;11.25;61.64;100015.81;1804968;79;21537;-77
2021/01/01 09:05:13;;;;;;;22.87;11.85;;;;;;;11.33;61.50;100009.91;1777368;79;21619;-78
2021/01/01 09:07:41;;;;;;;20.72;11.00;;;;;;;11.40;61.34;100014.09;1791154;79;21090;-77
2021/01/01 09:10:18;;;;;;;19.65;12.15;;;;;;;11.40;61.29;100018.95;1811539;79;21358;-78
2021/01/01 09:12:45;;;;;;;18.27;9.60;;;;;;;11.39;61.35;100017.75;1799833;77;21674;-80
2021/01/01 09:15:17;;;;;;;16.32;9.13;;;;;;;11.40;61.38;100024.81;1809462;79;21173;-77
2021/01/01 09:17:45;;;;;;;14.73;9.35;;;;;;;11.42;61.34;100019.59;1803210;79;22156;-79
2021/01/01 09:20:15;;;;;;;16.32;10.48;;;;;;;11.47;61.29;100016.89;1808129;79;21560;-77
2021/01/01 09:22:43;;;;;;;21.52;11.70;;;;;;;11.50;61.25;100021.41;1799037;79;22233;-80
2021/01/01 09:25:23;;;;;;;20.65;12.23;;;;;;;11.52;61.22;100016.70;1800078;79;21193;-76
2021/01/01 09:27:52;;;;;;;17.17;9.00;;;;;;;11.55;61.19;100015.02;1806001;78;21129;-77
2021/01/01 09:30:27;;;;;;;22.42;11.15;;;;;;;11.58;61.11;100013.33;1810223;79;38021;-76
2021/01/01 09:33:00;;;;;;;20.30;11.55;;;;;;;11.58;61.11;100015.15;1787388;80;21085;-77
2021/01/01 09:35:30;;;;;;;22.55;11.75;;;;;;;11.60;61.16;100009.95;1805493;79;21392;-76
2021/01/01 09:38:00;;;;;;;18.60;11.38;;;;;;;11.63;61.16;100012.30;1788935;80;21132;-76
2021/01/01 09:40:30;;;;;;;24.82;10.78;;;;;;;11.65;61.15;100012.94;1801762;77;21204;-77
2021/01/01 09:43:02;;;;;;;15.35;8.50;;;;;;;11.69;61.13;100011.58;1801022;79;21177;-78
2021/01/01 09:45:30;;;;;;;19.48;11.12;;;;;;;11.78;61.07;100020.93;1801885;77;21805;-77
2021/01/01 09:47:58;;;;;;;18.30;9.85;;;;;;;11.82;60.92;100016.41;1775090;79;21219;-77
2021/01/01 09:50:26;;;;;;;18.45;11.48;;;;;;;11.82;60.93;100016.41;1796366;77;21615;-77
2021/01/01 09:52:54;;;;;;;20.10;10.48;;;;;;;11.85;60.93;100009.32;1801894;79;21157;-77
2021/01/01 09:55:22;;;;;;;19.50;11.78;;;;;;;11.88;60.90;100014.86;1797451;79;21398;-78
2021/01/01 09:57:51;;;;;;;16.65;10.38;;;;;;;11.90;60.93;100010.16;1800800;79;21255;-77
2021/01/01 10:00:19;;;;;;;18.20;8.93;;;;;;;11.98;60.81;100012.77;1812867;79;22043;-77
2021/01/01 10:02:47;;;;;;;19.57;10.68;;;;;;;12.00;60.73;100016.13;1806953;79;21180;-78
2021/01/01 10:05:15;;;;;;;18.95;10.88;;;;;;;12.02;60.68;100007.38;1813051;78;21170;-82
2021/01/01 10:07:43;;;;;;;18.62;11.18;;;;;;;12.08;60.64;100014.73;1812621;78;21162;-77
2021/01/01 10:10:12;;;;;;;20.57;12.37;;;;;;;12.14;60.55;100014.52;1793580;77;21188;-77
2021/01/01 10:12:39;;;;;;;14.95;8.80;;;;;;;12.17;60.43;100015.00;1782240;80;22621;-78
2021/01/01 10:15:08;;;;;;;14.90;9.80;;;;;;;12.18;60.39;100013.98;1782212;80;21729;-79
2021/01/01 10:17:36;;;;;;;16.20;10.82;;;;;;;12.21;60.33;100013.28;1782840;79;21422;-77
2021/01/01 10:20:05;;;;;;;17.82;11.78;;;;;;;12.26;60.21;100006.86;1784655;77;21163;-77
2021/01/01 10:22:33;;;;;;;19.20;10.50;;;;;;;12.29;60.24;100007.84;1783460;80;21144;-77
2021/01/01 10:25:03;;;;;;;16.80;11.05;;;;;;;12.29;60.16;99999.80;1783843;80;21615;-78
2021/01/01 10:27:31;;;;;;;19.40;10.80;;;;;;;12.30;60.16;99998.77;1796226;79;21187;-79
2021/01/01 10:29:58;;;;;;;17.62;10.60;;;;;;;12.34;60.18;100006.80;1797227;77;21196;-77
2021/01/01 10:32:27;;;;;;;15.00;9.25;;;;;;;12.39;60.05;99999.03;1790473;80;21486;-77
2021/01/01 10:34:55;;;;;;;14.30;8.43;;;;;;;12.38;60.02;100004.08;1772744;78;21689;-79
2021/01/01 10:37:22;;;;;;;15.13;9.83;;;;;;;12.35;60.06;100009.33;1784818;77;21409;-78
2021/01/01 10:39:51;;;;;;;14.80;9.70;;;;;;;12.36;60.05;99998.06;1780763;80;21199;-79
2021/01/01 10:42:19;;;;;;;13.53;8.15;;;;;;;12.36;60.07;99998.06;1780783;80;21187;-79
2021/01/01 10:44:47;;;;;;;13.62;8.38;;;;;;;12.37;60.05;99991.16;1789712;77;21171;-78
2021/01/01 10:47:15;;;;;;;13.50;8.95;;;;;;;12.37;59.90;100001.08;1795316;77;21180;-78
2021/01/01 10:49:45;;;;;;;14.68;9.88;;;;;;;12.34;59.94;99996.89;1781633;80;21807;-81
2021/01/01 10:52:13;;;;;;;15.58;9.18;;;;;;;12.36;59.93;99992.70;1781004;80;21192;-79
2021/01/01 10:54:40;;;;;;;11.60;6.97;;;;;;;12.39;59.85;99990.97;1783706;77;22245;-79
2021/01/01 10:57:08;;;;;;;13.95;8.45;;;;;;;12.44;59.73;99998.84;1793373;79;21180;-79
2021/01/01 10:59:36;;;;;;;18.98;9.78;;;;;;;12.46;59.68;100005.36;1813270;79;21192;-77
2021/01/01 11:02:05;;;;;;;12.33;9.00;;;;;;;12.48;59.65;100001.14;1815845;79;21434;-78
2021/01/01 11:04:33;;;;;;;12.60;8.75;;;;;;;12.52;59.54;100006.48;1815609;79;21115;-77
2021/01/01 11:07:02;;;;;;;13.18;7.47;;;;;;;12.53;59.45;100008.97;1806091;79;21165;-79
2021/01/01 11:09:30;;;;;;;14.40;7.97;;;;;;;12.52;59.42;100005.97;1803048;79;21065;-78
2021/01/01 11:11:58;;;;;;;16.30;9.63;;;;;;;12.52;59.45;100010.00;1810141;79;21684;-79
2021/01/01 12:21:00;;;;;;;27.17;13.83;;;;;;;12.42;60.60;100038.45;1841307;77;21172;-80
2021/01/01 12:26:03;;;;;;;25.90;15.70;;;;;;;12.38;60.73;100043.02;1822075;77;21144;-78
2021/01/01 12:28:31;;;;;;;28.67;15.35;;;;;;;12.44;60.70;100053.04;1832827;77;21211;-79
2021/01/01 12:30:59;;;;;;;24.52;14.58;;;;;;;12.41;60.75;100058.28;1808272;77;21472;-78
2021/01/01 12:33:34;;;;;;;28.98;15.60;;;;;;;12.41;60.77;100060.13;1799728;77;21152;-79
2021/01/01 12:36:04;;;;;;;28.55;16.02;;;;;;;12.44;60.79;100059.75;1760495;79;22297;-80
2021/01/01 12:38:32;;;;;;;29.42;16.75;;;;;;;12.47;58.91;100064.78;1788032;77;21183;-79